Time;durP1;ratioP1;P1;durP2;ratioP2;P2;SDS_P1;SDS_P2;PMS_P1;PMS_P2;Temp;Humidity;BMP_temperature;BMP_pressure;BME280_temperature;BME280_humidity;BME280_pressure;Samples;Min_cycle;Max_cycle;Signal;HPM_P1;HPM_P2
2023/12/28 00:01:24;;;;;;;0.40;0.40;;;;;;;;;;5055041;28;20024;-82
2023/12/28 00:03:52;;;;;;;0.65;0.47;;;;;;;;;;5070055;28;20103;-81
2023/12/28 00:06:18;;;;;;;0.43;0.40;;;;;;;;;;5072257;28;20028;-81
2023/12/28 00:08:43;;;;;;;0.70;0.70;;;;;;;;;;5050856;28;21317;-82
2023/12/28 00:11:09;;;;;;;2.63;0.80;;;;;;;;;;5067429;28;20032;-81
2023/12/28 00:13:34;;;;;;;0.20;0.20;;;;;;;;;;5056294;28;20032;-81
2023/12/28 00:16:00;;;;;;;1.27;0.95;;;;;;;;;;5070962;28;20049;-83
2023/12/28 00:18:26;;;;;;;0.43;0.43;;;;;;;;;;5073810;28;20155;-81
2023/12/28 00:20:54;;;;;;;0.50;0.50;;;;;;;;;;5055400;28;20399;-81
2023/12/28 00:23:22;;;;;;;1.40;1.25;;;;;;;;;;5070535;28;20025;-81
2023/12/28 00:25:47;;;;;;;0.22;0.22;;;;;;;;;;5073838;28;20036;-82
2023/12/28 00:28:13;;;;;;;0.30;0.30;;;;;;;;;;5054308;28;20028;-83
2023/12/28 00:30:38;;;;;;;0.15;0.15;;;;;;;;;;5070792;28;20036;-81
2023/12/28 00:33:04;;;;;;;1.85;0.43;;;;;;;;;;5054762;28;20028;-82
2023/12/28 00:35:32;;;;;;;0.20;0.20;;;;;;;;;;5073678;28;20044;-81
2023/12/28 00:37:57;;;;;;;0.63;0.63;;;;;;;;;;5053695;28;20028;-81
2023/12/28 00:40:23;;;;;;;0.40;0.35;;;;;;;;;;5069476;28;20087;-81
2023/12/28 00:42:48;;;;;;;0.30;0.30;;;;;;;;;;5069989;28;20483;-81
2023/12/28 00:45:14;;;;;;;0.75;0.30;;;;;;;;;;5070344;28;20031;-81
2023/12/28 00:47:42;;;;;;;0.20;0.20;;;;;;;;;;5072277;28;20025;-83
2023/12/28 00:50:08;;;;;;;0.25;0.25;;;;;;;;;;5052288;28;20079;-80
2023/12/28 00:52:34;;;;;;;1.58;0.60;;;;;;;;;;5067642;28;20491;-82
2023/12/28 00:54:59;;;;;;;3.40;0.80;;;;;;;;;;5068780;28;21937;-82
2023/12/28 00:57:28;;;;;;;0.40;0.40;;;;;;;;;;5068653;28;20052;-81
2023/12/28 00:59:54;;;;;;;0.20;0.15;;;;;;;;;;5068745;28;20028;-80
2023/12/28 01:02:21;;;;;;;0.15;0.15;;;;;;;;;;5070103;28;21725;-81
2023/12/28 01:04:50;;;;;;;0.17;0.17;;;;;;;;;;5074147;28;20035;-81
2023/12/28 01:07:19;;;;;;;0.50;0.50;;;;;;;;;;5072706;28;20055;-82
2023/12/28 01:09:44;;;;;;;0.32;0.32;;;;;;;;;;5074457;28;20515;-82
2023/12/28 01:12:10;;;;;;;0.47;0.47;;;;;;;;;;5078110;28;20032;-80
2023/12/28 01:14:39;;;;;;;0.35;0.35;;;;;;;;;;5056244;28;20052;-82
2023/12/28 01:17:04;;;;;;;0.93;0.63;;;;;;;;;;5073412;28;20085;-79
2023/12/28 01:19:30;;;;;;;0.30;0.30;;;;;;;;;;5075361;28;20036;-79
2023/12/28 01:21:55;;;;;;;0.13;0.13;;;;;;;;;;5059523;28;20032;-82
2023/12/28 01:24:21;;;;;;;0.20;0.20;;;;;;;;;;5071613;28;20037;-81
2023/12/28 01:26:47;;;;;;;0.30;0.30;;;;;;;;;;5074529;28;20044;-81
2023/12/28 01:29:12;;;;;;;0.22;0.22;;;;;;;;;;5057563;28;20106;-81
2023/12/28 01:31:38;;;;;;;0.20;0.20;;;;;;;;;;5073615;28;20468;-81
2023/12/28 01:34:09;;;;;;;0.80;0.73;;;;;;;;;;5071660;28;20032;-81
2023/12/28 01:36:35;;;;;;;0.73;0.70;;;;;;;;;;5055052;28;20043;-82
2023/12/28 01:39:00;;;;;;;0.30;0.30;;;;;;;;;;5055709;28;20024;-81
2023/12/28 01:41:26;;;;;;;0.80;0.80;;;;;;;;;;5055118;28;20035;-81
2023/12/28 01:43:54;;;;;;;0.32;0.32;;;;;;;;;;5073917;28;20539;-80
2023/12/28 01:46:21;;;;;;;0.30;0.30;;;;;;;;;;5053393;28;20024;-82
2023/12/28 01:48:50;;;;;;;0.20;0.20;;;;;;;;;;5073789;28;20027;-81
2023/12/28 01:51:15;;;;;;;0.30;0.30;;;;;;;;;;5072809;28;20036;-80
2023/12/28 01:53:42;;;;;;;0.70;0.70;;;;;;;;;;5052673;28;20028;-81
2023/12/28 01:56:08;;;;;;;0.40;0.40;;;;;;;;;;5073692;28;20493;-81
2023/12/28 01:58:35;;;;;;;0.30;0.30;;;;;;;;;;5070998;28;20094;-81
2023/12/28 02:01:01;;;;;;;0.20;0.20;;;;;;;;;;5056732;28;20032;-80
2023/12/28 02:03:27;;;;;;;0.82;0.60;;;;;;;;;;5074672;28;20424;-80
2023/12/28 02:05:53;;;;;;;0.13;0.13;;;;;;;;;;5071600;28;20036;-81
2023/12/28 02:08:19;;;;;;;0.32;0.32;;;;;;;;;;5072389;28;20883;-80
2023/12/28 02:10:44;;;;;;;0.30;0.30;;;;;;;;;;5072394;28;20131;-80
2023/12/28 02:13:10;;;;;;;0.88;0.80;;;;;;;;;;5072475;28;20024;-82
2023/12/28 02:15:36;;;;;;;0.45;0.45;;;;;;;;;;5069937;28;20126;-81
2023/12/28 02:18:10;;;;;;;0.30;0.30;;;;;;;;;;5069171;28;20214;-81
2023/12/28 02:20:36;;;;;;;0.85;0.30;;;;;;;;;;5068947;28;20024;-80
2023/12/28 02:23:05;;;;;;;0.70;0.60;;;;;;;;;;5050260;28;20032;-80
2023/12/28 02:25:34;;;;;;;0.10;0.10;;;;;;;;;;5070403;28;20052;-81
2023/12/28 02:27:59;;;;;;;0.68;0.68;;;;;;;;;;5071946;28;20589;-81
2023/12/28 02:30:25;;;;;;;0.20;0.20;;;;;;;;;;5070975;28;20028;-80
2023/12/28 02:33:15;;;;;;;0.20;0.20;;;;;;;;;;5071221;28;20052;-82
2023/12/28 02:35:49;;;;;;;0.57;0.57;;;;;;;;;;5068245;28;20032;-80
2023/12/28 02:38:16;;;;;;;2.40;0.88;;;;;;;;;;5070031;28;20047;-80
2023/12/28 02:40:43;;;;;;;0.40;0.40;;;;;;;;;;5065646;28;20086;-80
2023/12/28 02:43:10;;;;;;;0.10;0.10;;;;;;;;;;5054834;28;20067;-81
2023/12/28 02:45:37;;;;;;;0.45;0.45;;;;;;;;;;5054033;28;20044;-81
2023/12/28 02:48:04;;;;;;;0.50;0.50;;;;;;;;;;5069988;28;20132;-81
2023/12/28 02:50:32;;;;;;;1.55;0.68;;;;;;;;;;5052057;28;20032;-82
2023/12/28 02:52:58;;;;;;;0.20;0.20;;;;;;;;;;5070205;28;20027;-81
2023/12/28 02:55:26;;;;;;;0.30;0.30;;;;;;;;;;5066812;28;20032;-81
2023/12/28 02:57:55;;;;;;;2.88;0.82;;;;;;;;;;5071183;28;20464;-82
2023/12/28 03:00:21;;;;;;;0.30;0.30;;;;;;;;;;5071818;28;20031;-81
2023/12/28 03:02:46;;;;;;;0.40;0.35;;;;;;;;;;5068683;28;20021;-80
2023/12/28 03:05:11;;;;;;;0.28;0.28;;;;;;;;;;5069281;28;20090;-80
2023/12/28 03:07:40;;;;;;;0.63;0.32;;;;;;;;;;5068911;28;20461;-81
2023/12/28 03:10:06;;;;;;;0.35;0.20;;;;;;;;;;5069448;28;20028;-82
2023/12/28 03:12:42;;;;;;;0.55;0.55;;;;;;;;;;5051035;28;20052;-80
2023/12/28 03:15:08;;;;;;;2.70;0.50;;;;;;;;;;5068582;28;20064;-79
2023/12/28 03:17:36;;;;;;;0.30;0.30;;;;;;;;;;5068528;28;20376;-80
2023/12/28 03:20:02;;;;;;;0.47;0.47;;;;;;;;;;5068036;28;20035;-80
2023/12/28 03:22:31;;;;;;;0.82;0.40;;;;;;;;;;5050989;28;20066;-80
2023/12/28 03:24:56;;;;;;;0.10;0.10;;;;;;;;;;5065840;28;20039;-80
2023/12/28 03:27:28;;;;;;;0.52;0.47;;;;;;;;;;5071645;28;20024;-83
2023/12/28 03:29:53;;;;;;;3.47;1.25;;;;;;;;;;5052160;28;20032;-82
2023/12/28 03:32:19;;;;;;;0.68;0.68;;;;;;;;;;5068819;28;20039;-83
2023/12/28 03:34:44;;;;;;;0.40;0.40;;;;;;;;;;5053319;28;20032;-81
2023/12/28 03:37:11;;;;;;;0.40;0.40;;;;;;;;;;5068457;28;20024;-80
2023/12/28 03:39:37;;;;;;;1.65;1.02;;;;;;;;;;5069213;28;20028;-81
2023/12/28 03:42:09;;;;;;;0.30;0.30;;;;;;;;;;5068200;28;20029;-81
2023/12/28 03:44:35;;;;;;;0.40;0.30;;;;;;;;;;5067796;28;20021;-82
2023/12/28 03:47:00;;;;;;;0.40;0.40;;;;;;;;;;5068210;28;20128;-82
2023/12/28 03:49:29;;;;;;;0.15;0.15;;;;;;;;;;5068542;28;20016;-81
2023/12/28 03:51:54;;;;;;;0.25;0.25;;;;;;;;;;5069161;28;20438;-83
2023/12/28 03:54:20;;;;;;;0.45;0.45;;;;;;;;;;5068475;28;20024;-81
2023/12/28 03:56:48;;;;;;;0.65;0.22;;;;;;;;;;5066855;28;20476;-82
2023/12/28 03:59:16;;;;;;;0.50;0.47;;;;;;;;;;5067392;28;20587;-81
2023/12/28 04:01:42;;;;;;;0.63;0.63;;;;;;;;;;5069725;28;20093;-81
2023/12/28 04:04:08;;;;;;;1.38;0.70;;;;;;;;;;5069453;28;20028;-81
2023/12/28 04:06:34;;;;;;;0.38;0.38;;;;;;;;;;5068137;28;20039;-79
2023/12/28 04:08:59;;;;;;;0.28;0.28;;;;;;;;;;5050726;28;20047;-82
2023/12/28 04:11:24;;;;;;;1.02;0.60;;;;;;;;;;5069833;28;20044;-81
2023/12/28 04:13:50;;;;;;;0.75;0.73;;;;;;;;;;5067478;28;20036;-82
2023/12/28 04:16:16;;;;;;;0.98;0.88;;;;;;;;;;5067198;28;20044;-80
2023/12/28 04:18:42;;;;;;;0.20;0.20;;;;;;;;;;5069716;28;20082;-80
2023/12/28 04:21:09;;;;;;;0.85;0.50;;;;;;;;;;5069303;28;20786;-82
2023/12/28 04:23:36;;;;;;;0.30;0.30;;;;;;;;;;5071433;28;20029;-83
2023/12/28 04:26:04;;;;;;;0.50;0.50;;;;;;;;;;5067829;28;20044;-82
2023/12/28 04:28:30;;;;;;;0.82;0.50;;;;;;;;;;5070018;28;20112;-82
2023/12/28 04:30:58;;;;;;;1.08;0.95;;;;;;;;;;5051417;28;20119;-81
2023/12/28 04:33:24;;;;;;;0.47;0.47;;;;;;;;;;5070937;28;20475;-81
2023/12/28 04:35:49;;;;;;;0.55;0.55;;;;;;;;;;5069666;28;20056;-83
2023/12/28 04:38:14;;;;;;;0.55;0.47;;;;;;;;;;5068422;28;20067;-80
2023/12/28 04:40:40;;;;;;;0.82;0.82;;;;;;;;;;5069894;28;20024;-80
2023/12/28 04:43:05;;;;;;;0.28;0.28;;;;;;;;;;5054101;28;20066;-80
2023/12/28 04:45:31;;;;;;;0.50;0.50;;;;;;;;;;5072425;28;20040;-83
2023/12/28 04:47:56;;;;;;;1.48;0.50;;;;;;;;;;5071746;28;20480;-80
2023/12/28 04:50:25;;;;;;;0.40;0.40;;;;;;;;;;5071889;28;20537;-81
2023/12/28 04:52:50;;;;;;;0.40;0.40;;;;;;;;;;5059146;28;20028;-80
2023/12/28 04:55:16;;;;;;;0.50;0.50;;;;;;;;;;5072158;28;20035;-80
2023/12/28 04:57:42;;;;;;;0.88;0.70;;;;;;;;;;5069892;28;20046;-82
2023/12/28 05:00:08;;;;;;;0.32;0.32;;;;;;;;;;5072319;28;20085;-81
2023/12/28 05:02:34;;;;;;;0.22;0.22;;;;;;;;;;5071456;28;20494;-81
2023/12/28 05:05:00;;;;;;;0.20;0.20;;;;;;;;;;5069814;28;20028;-82
2023/12/28 05:07:25;;;;;;;0.55;0.55;;;;;;;;;;5052935;28;20064;-81
2023/12/28 05:09:51;;;;;;;0.28;0.28;;;;;;;;;;5070618;28;20036;-80
2023/12/28 05:12:16;;;;;;;0.20;0.20;;;;;;;;;;5067573;28;20060;-80
2023/12/28 05:14:42;;;;;;;0.50;0.50;;;;;;;;;;5071255;28;20052;-81
2023/12/28 05:17:14;;;;;;;1.40;1.27;;;;;;;;;;5071041;28;20031;-80
2023/12/28 05:19:39;;;;;;;0.10;0.10;;;;;;;;;;5070857;28;20472;-82
2023/12/28 05:22:08;;;;;;;0.20;0.20;;;;;;;;;;5072035;28;20033;-85
2023/12/28 05:24:41;;;;;;;0.50;0.50;;;;;;;;;;5070777;28;20120;-81
2023/12/28 05:27:07;;;;;;;0.32;0.32;;;;;;;;;;5069981;28;20052;-81
2023/12/28 05:29:35;;;;;;;0.60;0.50;;;;;;;;;;5069781;28;20475;-80
2023/12/28 05:32:01;;;;;;;0.52;0.40;;;;;;;;;;5060323;28;20064;-78
2023/12/28 05:34:26;;;;;;;0.10;0.10;;;;;;;;;;5071118;28;20054;-80
2023/12/28 05:36:52;;;;;;;3.40;2.40;;;;;;;;;;5052058;28;20039;-80
2023/12/28 05:39:29;;;;;;;0.20;0.20;;;;;;;;;;5069902;28;20476;-79
2023/12/28 05:41:54;;;;;;;3.03;1.15;;;;;;;;;;5051141;28;20037;-80
2023/12/28 05:44:22;;;;;;;0.35;0.35;;;;;;;;;;5070934;28;20135;-80
2023/12/28 05:46:52;;;;;;;0.30;0.30;;;;;;;;;;5071321;28;20024;-80
2023/12/28 05:49:25;;;;;;;0.20;0.20;;;;;;;;;;5070566;28;20025;-78
2023/12/28 05:51:53;;;;;;;0.15;0.15;;;;;;;;;;5065689;28;20025;-80
2023/12/28 05:54:18;;;;;;;0.40;0.40;;;;;;;;;;5069717;28;20488;-82
2023/12/28 05:56:44;;;;;;;0.45;0.45;;;;;;;;;;5070699;28;20067;-83
2023/12/28 05:59:17;;;;;;;0.50;0.50;;;;;;;;;;5069533;28;20362;-80
2023/12/28 06:01:53;;;;;;;0.63;0.63;;;;;;;;;;5069572;28;20447;-80
2023/12/28 06:04:18;;;;;;;0.22;0.22;;;;;;;;;;5052303;28;20025;-80
2023/12/28 06:06:50;;;;;;;0.50;0.50;;;;;;;;;;5068774;28;20047;-81
2023/12/28 06:09:15;;;;;;;0.40;0.40;;;;;;;;;;5069906;28;20020;-80
2023/12/28 06:11:41;;;;;;;0.55;0.55;;;;;;;;;;5069729;28;20135;-81
2023/12/28 06:14:06;;;;;;;1.40;1.25;;;;;;;;;;5067352;28;20503;-80
2023/12/28 06:16:33;;;;;;;1.33;1.08;;;;;;;;;;5068381;28;20024;-80
2023/12/28 06:18:59;;;;;;;1.95;0.70;;;;;;;;;;5052174;28;20025;-83
2023/12/28 06:21:24;;;;;;;1.85;1.25;;;;;;;;;;5071157;28;20111;-81
2023/12/28 06:23:50;;;;;;;0.45;0.45;;;;;;;;;;5070806;28;20744;-79
2023/12/28 06:26:15;;;;;;;0.75;0.75;;;;;;;;;;5069275;28;20021;-79
2023/12/28 06:28:40;;;;;;;1.88;0.70;;;;;;;;;;5070692;28;20680;-81
2023/12/28 06:31:06;;;;;;;0.90;0.90;;;;;;;;;;5069855;28;20020;-80
2023/12/28 06:33:31;;;;;;;1.50;1.38;;;;;;;;;;5071329;28;20028;-79
2023/12/28 06:35:58;;;;;;;1.10;1.00;;;;;;;;;;5070175;28;20452;-79
2023/12/28 06:38:24;;;;;;;1.48;1.38;;;;;;;;;;5069810;28;20042;-79
2023/12/28 06:40:49;;;;;;;2.15;0.82;;;;;;;;;;5070139;28;20480;-80
2023/12/28 06:43:15;;;;;;;0.75;0.75;;;;;;;;;;5069363;28;20108;-80
2023/12/28 06:45:41;;;;;;;1.92;1.38;;;;;;;;;;5069821;28;20100;-80
2023/12/28 06:48:06;;;;;;;4.10;1.67;;;;;;;;;;5071185;28;20055;-81
2023/12/28 06:50:31;;;;;;;1.52;0.75;;;;;;;;;;5071118;28;20383;-80
2023/12/28 06:52:57;;;;;;;0.65;0.65;;;;;;;;;;5071191;28;20048;-79
2023/12/28 06:55:22;;;;;;;0.65;0.65;;;;;;;;;;5069823;28;20035;-79
2023/12/28 06:57:48;;;;;;;0.38;0.38;;;;;;;;;;5072563;28;20037;-79
2023/12/28 07:00:13;;;;;;;0.70;0.60;;;;;;;;;;5072444;28;20506;-78
2023/12/28 07:02:39;;;;;;;1.10;0.50;;;;;;;;;;5055056;28;20024;-80
2023/12/28 07:05:05;;;;;;;0.93;0.70;;;;;;;;;;5069082;28;20032;-80
2023/12/28 07:07:30;;;;;;;0.57;0.57;;;;;;;;;;5049131;28;20784;-79
2023/12/28 07:09:56;;;;;;;1.45;1.23;;;;;;;;;;5071336;28;20353;-80
2023/12/28 07:12:21;;;;;;;0.80;0.80;;;;;;;;;;5070450;28;20025;-79
2023/12/28 07:14:47;;;;;;;0.70;0.70;;;;;;;;;;5063732;28;20120;-78
2023/12/28 07:17:17;;;;;;;1.05;0.60;;;;;;;;;;5072141;28;20430;-84
2023/12/28 07:19:45;;;;;;;1.50;1.40;;;;;;;;;;5068617;28;20488;-80
2023/12/28 07:22:10;;;;;;;3.38;1.80;;;;;;;;;;5069068;28;20035;-81
2023/12/28 07:24:36;;;;;;;2.05;1.80;;;;;;;;;;5066219;28;20036;-78
2023/12/28 07:27:01;;;;;;;3.85;1.40;;;;;;;;;;5070082;28;20028;-78
2023/12/28 07:29:26;;;;;;;1.75;1.20;;;;;;;;;;5068346;28;20021;-79
2023/12/28 07:31:53;;;;;;;2.50;1.85;;;;;;;;;;5065024;28;20028;-78
2023/12/28 07:34:19;;;;;;;2.20;1.88;;;;;;;;;;5069017;28;20098;-79
2023/12/28 07:36:44;;;;;;;3.38;1.50;;;;;;;;;;5050201;28;20036;-79
2023/12/28 07:39:10;;;;;;;2.22;1.90;;;;;;;;;;5050606;28;20035;-79
2023/12/28 07:41:36;;;;;;;4.22;2.58;;;;;;;;;;5067840;28;20054;-79
2023/12/28 07:44:01;;;;;;;2.13;1.77;;;;;;;;;;5067742;28;20115;-79
2023/12/28 07:46:27;;;;;;;2.72;1.90;;;;;;;;;;5066249;28;20094;-81
2023/12/28 07:48:52;;;;;;;1.75;1.42;;;;;;;;;;5069559;28;20070;-79
2023/12/28 07:51:17;;;;;;;2.42;1.95;;;;;;;;;;5068884;28;20475;-79
2023/12/28 07:53:43;;;;;;;2.55;1.95;;;;;;;;;;5068593;28;20028;-81
2023/12/28 07:56:08;;;;;;;3.67;2.47;;;;;;;;;;5071903;28;20051;-79
2023/12/28 07:58:34;;;;;;;2.90;1.98;;;;;;;;;;5053596;28;20024;-82
2023/12/28 08:01:00;;;;;;;1.90;1.42;;;;;;;;;;5069636;28;20036;-80
2023/12/28 08:03:25;;;;;;;4.13;1.42;;;;;;;;;;5069857;28;20056;-79
2023/12/28 08:05:50;;;;;;;1.92;1.50;;;;;;;;;;5069411;28;20040;-78
2023/12/28 08:08:16;;;;;;;4.25;2.13;;;;;;;;;;5065459;28;20028;-79
2023/12/28 08:10:41;;;;;;;2.83;2.20;;;;;;;;;;5067776;28;20051;-78
2023/12/28 08:13:06;;;;;;;2.00;1.58;;;;;;;;;;5049989;28;20115;-81
2023/12/28 08:15:32;;;;;;;4.35;2.25;;;;;;;;;;5070714;28;20071;-80
2023/12/28 08:17:58;;;;;;;6.60;3.00;;;;;;;;;;5052507;28;20140;-80
2023/12/28 08:20:24;;;;;;;3.90;2.20;;;;;;;;;;5054560;28;20107;-78
2023/12/28 08:22:49;;;;;;;6.45;3.33;;;;;;;;;;5069091;28;20086;-80
2023/12/28 08:25:15;;;;;;;2.17;1.50;;;;;;;;;;5072575;28;20131;-80
2023/12/28 08:27:40;;;;;;;1.45;1.35;;;;;;;;;;5073485;28;20032;-80
2023/12/28 08:30:07;;;;;;;7.10;3.15;;;;;;;;;;5073473;28;20476;-80
2023/12/28 08:32:33;;;;;;;4.97;2.55;;;;;;;;;;5071851;28;20040;-80
2023/12/28 08:34:58;;;;;;;4.32;3.10;;;;;;;;;;5073125;28;20458;-81
2023/12/28 08:37:24;;;;;;;4.35;2.97;;;;;;;;;;5074060;28;20024;-80
2023/12/28 08:39:49;;;;;;;4.50;2.95;;;;;;;;;;5072208;28;20507;-79
2023/12/28 08:42:14;;;;;;;1.90;1.80;;;;;;;;;;5073789;28;20082;-80
2023/12/28 08:44:40;;;;;;;9.93;2.78;;;;;;;;;;5073978;28;20451;-80
2023/12/28 08:47:05;;;;;;;5.07;3.05;;;;;;;;;;5073903;28;20456;-80
2023/12/28 08:49:33;;;;;;;10.10;2.38;;;;;;;;;;5074079;28;20017;-79
2023/12/28 08:51:58;;;;;;;3.17;2.80;;;;;;;;;;5073802;28;20031;-79
2023/12/28 08:54:23;;;;;;;3.60;2.88;;;;;;;;;;5073775;28;20099;-78
2023/12/28 08:56:49;;;;;;;4.88;3.80;;;;;;;;;;5073382;28;20059;-79
2023/12/28 08:59:14;;;;;;;3.42;3.00;;;;;;;;;;5073740;28;20120;-79
2023/12/28 09:01:40;;;;;;;5.88;3.30;;;;;;;;;;5073938;28;20028;-78
2023/12/28 09:04:05;;;;;;;4.88;2.92;;;;;;;;;;5072855;28;20032;-80
2023/12/28 09:06:31;;;;;;;5.93;2.97;;;;;;;;;;5072248;28;20430;-79
2023/12/28 09:08:56;;;;;;;4.35;2.97;;;;;;;;;;5075206;28;20691;-79
2023/12/28 09:11:22;;;;;;;6.07;2.72;;;;;;;;;;5073355;28;20104;-79
2023/12/28 09:13:47;;;;;;;4.13;3.30;;;;;;;;;;5074112;28;20060;-81
2023/12/28 09:16:14;;;;;;;4.68;4.00;;;;;;;;;;5072716;28;20125;-80
2023/12/28 09:18:40;;;;;;;3.88;3.05;;;;;;;;;;5075279;28;20479;-78
2023/12/28 09:21:07;;;;;;;5.82;3.42;;;;;;;;;;5055758;28;20028;-79
2023/12/28 09:23:34;;;;;;;5.97;2.50;;;;;;;;;;5072500;28;20020;-80
2023/12/28 09:26:03;;;;;;;8.15;3.20;;;;;;;;;;5054482;28;20170;-79
2023/12/28 09:28:29;;;;;;;6.38;2.92;;;;;;;;;;5073857;28;20032;-80
2023/12/28 09:30:55;;;;;;;4.70;3.38;;;;;;;;;;5072624;28;20036;-80
2023/12/28 09:33:20;;;;;;;4.68;2.50;;;;;;;;;;5073721;28;20028;-80
2023/12/28 09:35:46;;;;;;;3.75;3.03;;;;;;;;;;5072527;28;20029;-80
2023/12/28 09:38:13;;;;;;;2.40;2.20;;;;;;;;;;5072158;28;20720;-80
2023/12/28 09:40:42;;;;;;;3.60;2.80;;;;;;;;;;5072228;28;20051;-79
2023/12/28 09:43:19;;;;;;;2.33;2.13;;;;;;;;;;5072441;28;20111;-78
2023/12/28 09:45:47;;;;;;;3.53;2.90;;;;;;;;;;5073165;28;20020;-78
2023/12/28 09:48:20;;;;;;;3.30;2.25;;;;;;;;;;5071534;28;20070;-79
2023/12/28 09:50:49;;;;;;;4.88;2.97;;;;;;;;;;5072633;28;20035;-79
2023/12/28 09:53:15;;;;;;;3.75;2.15;;;;;;;;;;5071809;28;20074;-78
2023/12/28 09:55:40;;;;;;;5.32;2.88;;;;;;;;;;5073753;28;20033;-79
2023/12/28 09:58:06;;;;;;;4.90;3.33;;;;;;;;;;5052705;28;20733;-79
2023/12/28 10:00:32;;;;;;;5.38;3.00;;;;;;;;;;5073484;28;20533;-81
2023/12/28 10:02:58;;;;;;;8.52;3.35;;;;;;;;;;5073204;28;20162;-81
2023/12/28 10:05:23;;;;;;;6.70;2.60;;;;;;;;;;5055132;28;20499;-79
2023/12/28 10:07:50;;;;;;;4.88;3.00;;;;;;;;;;5073763;28;20103;-80
2023/12/28 10:10:15;;;;;;;5.68;3.55;;;;;;;;;;5071901;28;20024;-79
2023/12/28 10:12:42;;;;;;;5.43;2.85;;;;;;;;;;5071443;28;20521;-80
2023/12/28 10:15:07;;;;;;;8.43;3.80;;;;;;;;;;5074274;28;20518;-81
2023/12/28 10:17:37;;;;;;;3.08;2.53;;;;;;;;;;5070912;28;20029;-79
2023/12/28 10:20:04;;;;;;;;;;;;;;;;;;5070562;28;20036;-80
2023/12/28 10:22:33;;;;;;;2.42;2.22;;;;;;;;;;5067946;28;20279;-79
2023/12/28 10:25:00;;;;;;;4.43;3.25;;;;;;;;;;5072811;28;20395;-79
2023/12/28 10:27:27;;;;;;;3.00;1.85;;;;;;;;;;5073651;28;20074;-80
2023/12/28 10:29:56;;;;;;;3.65;2.58;;;;;;;;;;5074330;28;20028;-79
2023/12/28 10:32:24;;;;;;;2.83;2.15;;;;;;;;;;5071303;28;20039;-80
2023/12/28 10:34:51;;;;;;;4.20;2.20;;;;;;;;;;5071961;28;20151;-80
2023/12/28 10:37:19;;;;;;;6.13;2.70;;;;;;;;;;5065138;28;20020;-79
2023/12/28 10:39:47;;;;;;;5.68;3.00;;;;;;;;;;5069234;28;20056;-82
2023/12/28 10:42:15;;;;;;;4.20;2.47;;;;;;;;;;5069303;28;20419;-81
2023/12/28 10:44:44;;;;;;;2.25;2.05;;;;;;;;;;5070337;28;20131;-79
2023/12/28 10:47:17;;;;;;;5.47;3.60;;;;;;;;;;5068211;28;20029;-80
2023/12/28 10:49:43;;;;;;;3.63;2.75;;;;;;;;;;5067723;28;20403;-81
2023/12/28 10:52:13;;;;;;;3.83;2.92;;;;;;;;;;5070100;28;20020;-80
2023/12/28 10:54:54;;;;;;;3.40;2.17;;;;;;;;;;5069475;28;20025;-81
2023/12/28 10:57:30;;;;;;;3.38;2.55;;;;;;;;;;5069918;28;20044;-81
2023/12/28 11:00:09;;;;;;;6.65;2.70;;;;;;;;;;5068711;28;20472;-81
2023/12/28 11:02:48;;;;;;;6.15;2.85;;;;;;;;;;5051920;28;20031;-79
2023/12/28 11:05:15;;;;;;;3.35;3.00;;;;;;;;;;5069269;28;20028;-80
2023/12/28 11:07:44;;;;;;;4.40;3.03;;;;;;;;;;5069695;28;20354;-79
2023/12/28 11:10:11;;;;;;;4.18;2.67;;;;;;;;;;5052357;28;20032;-81
2023/12/28 11:12:51;;;;;;;4.78;2.95;;;;;;;;;;5051527;28;20062;-82
2023/12/28 11:15:21;;;;;;;2.88;2.17;;;;;;;;;;5067674;28;20048;-81
2023/12/28 11:17:46;;;;;;;6.30;3.53;;;;;;;;;;5052277;28;20142;-81
2023/12/28 11:20:13;;;;;;;4.90;3.10;;;;;;;;;;5068659;28;20056;-82
2023/12/28 11:22:42;;;;;;;5.20;3.45;;;;;;;;;;5050578;28;20020;-79
2023/12/28 11:25:15;;;;;;;5.27;3.87;;;;;;;;;;5049352;28;20024;-81
2023/12/28 11:27:41;;;;;;;6.00;3.33;;;;;;;;;;5069208;28;20319;-79
2023/12/28 11:30:10;;;;;;;6.32;3.55;;;;;;;;;;5052230;28;20020;-80
2023/12/28 11:32:37;;;;;;;3.60;2.17;;;;;;;;;;5052867;28;20503;-79
2023/12/28 11:35:09;;;;;;;9.68;2.65;;;;;;;;;;5069730;28;20059;-82
2023/12/28 11:37:40;;;;;;;2.75;2.15;;;;;;;;;;5051371;28;20736;-84
2023/12/28 11:40:15;;;;;;;4.38;3.20;;;;;;;;;;5068420;28;20028;-82
2023/12/28 11:42:53;;;;;;;5.75;2.88;;;;;;;;;;5068922;28;20537;-82
2023/12/28 11:45:22;;;;;;;6.65;2.92;;;;;;;;;;5049036;28;20028;-82
2023/12/28 11:47:59;;;;;;;4.88;2.80;;;;;;;;;;5068193;28;20056;-82
2023/12/28 11:50:28;;;;;;;3.20;1.90;;;;;;;;;;5066919;28;20077;-81
2023/12/28 11:53:04;;;;;;;5.40;2.15;;;;;;;;;;5053712;28;20032;-82
2023/12/28 11:55:30;;;;;;;3.67;1.83;;;;;;;;;;5070337;28;20040;-82
2023/12/28 11:58:01;;;;;;;4.75;2.67;;;;;;;;;;5067710;28;20032;-81
2023/12/28 12:00:29;;;;;;;3.72;2.75;;;;;;;;;;5067485;28;20077;-82
2023/12/28 12:02:55;;;;;;;3.22;2.63;;;;;;;;;;5069443;28;20032;-82
2023/12/28 12:05:21;;;;;;;4.68;2.58;;;;;;;;;;5069315;28;20024;-82
2023/12/28 12:07:49;;;;;;;2.45;1.85;;;;;;;;;;5068986;28;20061;-82
2023/12/28 12:10:15;;;;;;;5.72;2.53;;;;;;;;;;5069233;28;20043;-82
2023/12/28 12:12:42;;;;;;;4.40;2.60;;;;;;;;;;5050768;28;20028;-82
2023/12/28 12:15:08;;;;;;;3.35;3.00;;;;;;;;;;5066572;28;20068;-81
2023/12/28 12:17:34;;;;;;;5.50;3.55;;;;;;;;;;5068175;28;20039;-84
2023/12/28 12:19:59;;;;;;;4.28;3.05;;;;;;;;;;5049202;28;20021;-84
2023/12/28 12:22:31;;;;;;;4.07;2.17;;;;;;;;;;5066991;28;20024;-80
2023/12/28 12:25:00;;;;;;;3.13;2.42;;;;;;;;;;5068048;28;20029;-81
2023/12/28 12:27:25;;;;;;;3.65;2.30;;;;;;;;;;5049528;28;20103;-82
2023/12/28 12:29:54;;;;;;;4.00;3.10;;;;;;;;;;5067610;28;20079;-82
2023/12/28 12:32:22;;;;;;;3.28;2.17;;;;;;;;;;5066932;28;20027;-82
2023/12/28 12:34:48;;;;;;;3.00;2.42;;;;;;;;;;5067643;28;20341;-80
2023/12/28 12:37:14;;;;;;;4.32;2.38;;;;;;;;;;5068351;28;20035;-80
2023/12/28 12:39:40;;;;;;;4.20;3.22;;;;;;;;;;5068771;28;20031;-82
2023/12/28 12:42:06;;;;;;;5.55;3.50;;;;;;;;;;5068017;28;20153;-82
2023/12/28 12:44:32;;;;;;;2.88;2.13;;;;;;;;;;5068213;28;20107;-83
2023/12/28 12:46:58;;;;;;;5.70;2.08;;;;;;;;;;5065916;28;20040;-81
2023/12/28 12:49:27;;;;;;;1.65;1.35;;;;;;;;;;5049496;28;20016;-81
2023/12/28 12:51:57;;;;;;;1.88;1.63;;;;;;;;;;5048135;28;20047;-83
2023/12/28 12:54:22;;;;;;;2.20;2.00;;;;;;;;;;5049622;28;20417;-84
2023/12/28 12:56:52;;;;;;;3.92;1.27;;;;;;;;;;5049150;28;20135;-83
2023/12/28 12:59:22;;;;;;;2.88;1.75;;;;;;;;;;5067001;28;20036;-82
2023/12/28 13:01:52;;;;;;;5.78;1.23;;;;;;;;;;5053491;28;20032;-83
2023/12/28 13:04:21;;;;;;;1.88;0.95;;;;;;;;;;5052768;28;20058;-83
2023/12/28 13:06:46;;;;;;;1.83;1.60;;;;;;;;;;5071105;28;20036;-83
2023/12/28 13:09:12;;;;;;;0.82;0.77;;;;;;;;;;5068299;28;20036;-82
2023/12/28 13:11:37;;;;;;;1.50;1.23;;;;;;;;;;5071319;28;20035;-82
2023/12/28 13:14:04;;;;;;;1.40;0.98;;;;;;;;;;5070495;28;20039;-85
2023/12/28 13:16:30;;;;;;;1.05;0.60;;;;;;;;;;5069906;28;20059;-82
2023/12/28 13:18:55;;;;;;;0.63;0.63;;;;;;;;;;5051939;28;20033;-83
2023/12/28 13:21:23;;;;;;;2.17;1.10;;;;;;;;;;5053164;28;20032;-82
2023/12/28 13:23:56;;;;;;;0.93;0.85;;;;;;;;;;5068893;28;20476;-81
2023/12/28 13:26:22;;;;;;;1.45;0.63;;;;;;;;;;5047661;28;20056;-81
2023/12/28 13:28:48;;;;;;;1.73;0.90;;;;;;;;;;5050981;28;20087;-80
2023/12/28 13:31:13;;;;;;;0.88;0.63;;;;;;;;;;5069982;28;20033;-80
2023/12/28 13:33:39;;;;;;;0.65;0.47;;;;;;;;;;5068300;28;20036;-82
2023/12/28 13:36:05;;;;;;;2.40;1.25;;;;;;;;;;5052332;28;20503;-81
2023/12/28 13:38:30;;;;;;;1.38;1.20;;;;;;;;;;5070019;28;20112;-79
2023/12/28 13:40:56;;;;;;;0.77;0.70;;;;;;;;;;5069440;28;20036;-79
2023/12/28 13:43:21;;;;;;;1.30;0.82;;;;;;;;;;5069728;28;20028;-81
2023/12/28 13:45:47;;;;;;;1.05;0.88;;;;;;;;;;5067850;28;20119;-80
2023/12/28 13:48:12;;;;;;;1.10;0.77;;;;;;;;;;5069974;28;20024;-80
2023/12/28 13:50:38;;;;;;;1.15;0.70;;;;;;;;;;5070039;28;20032;-80
2023/12/28 13:53:08;;;;;;;0.88;0.40;;;;;;;;;;5051600;28;20032;-80
2023/12/28 13:55:33;;;;;;;0.30;0.30;;;;;;;;;;5066802;28;20040;-81
2023/12/28 13:57:58;;;;;;;0.38;0.28;;;;;;;;;;5069088;28;20036;-79
2023/12/28 14:00:24;;;;;;;0.93;0.50;;;;;;;;;;5068962;28;20031;-79
2023/12/28 14:02:49;;;;;;;0.52;0.52;;;;;;;;;;5068358;28;20028;-79
2023/12/28 14:05:15;;;;;;;2.08;1.08;;;;;;;;;;5069324;28;20028;-80
2023/12/28 14:07:40;;;;;;;0.20;0.20;;;;;;;;;;5052061;28;20028;-79
2023/12/28 14:10:06;;;;;;;0.25;0.25;;;;;;;;;;5051180;28;20024;-81
2023/12/28 14:12:32;;;;;;;0.25;0.17;;;;;;;;;;5048502;28;20025;-80
2023/12/28 14:14:58;;;;;;;0.50;0.50;;;;;;;;;;5068939;28;20048;-80
2023/12/28 14:17:23;;;;;;;0.30;0.30;;;;;;;;;;5065920;28;20035;-81
2023/12/28 14:19:49;;;;;;;0.20;0.20;;;;;;;;;;5067996;28;20475;-79
2023/12/28 14:22:15;;;;;;;0.80;0.70;;;;;;;;;;5068835;28;20047;-80
2023/12/28 14:24:40;;;;;;;0.40;0.40;;;;;;;;;;5068373;28;20545;-80
2023/12/28 14:27:06;;;;;;;0.57;0.50;;;;;;;;;;5068000;28;20073;-79
2023/12/28 14:29:32;;;;;;;0.65;0.52;;;;;;;;;;5067427;28;20448;-81
2023/12/28 14:31:58;;;;;;;1.10;0.65;;;;;;;;;;5069061;28;20056;-80
2023/12/28 14:34:23;;;;;;;0.15;0.15;;;;;;;;;;5067072;28;20515;-80
2023/12/28 14:36:52;;;;;;;0.35;0.25;;;;;;;;;;5067715;28;20024;-81
2023/12/28 14:39:18;;;;;;;0.77;0.60;;;;;;;;;;5067606;28;20032;-80
2023/12/28 14:41:44;;;;;;;0.45;0.45;;;;;;;;;;5069275;28;20031;-79